createdAt,value
2023-02-16T00:00:00.448Z,0.83
2023-02-16T00:01:00.471Z,0.76
2023-02-16T00:02:00.536Z,0.70
2023-02-16T00:03:00.428Z,0.68
2023-02-16T00:04:00.401Z,0.69
2023-02-16T00:05:00.385Z,0.70
2023-02-16T00:06:00.410Z,0.73
2023-02-16T00:07:00.389Z,0.84
2023-02-16T00:08:00.373Z,0.74
2023-02-16T00:09:00.330Z,0.66
2023-02-16T00:10:00.326Z,0.68
2023-02-16T00:11:00.524Z,0.69
2023-02-16T00:12:00.308Z,0.78
2023-02-16T00:13:00.277Z,0.81
2023-02-16T00:14:00.268Z,0.80
2023-02-16T00:15:00.253Z,0.84
2023-02-16T00:16:00.361Z,0.92
2023-02-16T00:17:00.245Z,0.95
2023-02-16T00:18:00.225Z,1.05
2023-02-16T00:19:00.223Z,1.05
2023-02-16T00:20:00.192Z,1.05
2023-02-16T00:21:00.176Z,1.04
2023-02-16T00:22:00.294Z,1.10
2023-02-16T00:23:00.151Z,1.16
2023-02-16T00:24:00.138Z,1.16
2023-02-16T00:25:00.155Z,1.14
2023-02-16T00:26:00.125Z,1.14
2023-02-16T00:27:00.112Z,1.17
2023-02-16T00:28:00.115Z,1.16
2023-02-16T00:29:00.122Z,1.20
2023-02-16T00:30:00.124Z,1.13
2023-02-16T00:31:00.221Z,1.06
2023-02-16T00:32:00.259Z,1.10
2023-02-16T00:33:00.024Z,1.16
2023-02-16T00:34:00.012Z,1.12
2023-02-16T00:35:00.015Z,1.02
2023-02-16T00:35:59.990Z,1.04
2023-02-16T00:36:59.988Z,0.99
2023-02-16T00:37:59.964Z,1.04
2023-02-16T00:38:59.954Z,1.12
2023-02-16T00:39:59.937Z,1.19
2023-02-16T00:40:59.930Z,1.20
2023-02-16T00:41:59.931Z,1.26
2023-02-16T00:42:59.902Z,1.26
2023-02-16T00:43:59.881Z,1.26
2023-02-16T00:44:59.874Z,1.30
2023-02-16T00:45:59.905Z,1.20
2023-02-16T00:46:59.862Z,1.16
2023-02-16T00:47:59.834Z,0.99
2023-02-16T00:48:59.829Z,0.87
2023-02-16T00:49:59.812Z,0.77
2023-02-16T00:50:59.823Z,0.74
2023-02-16T00:51:59.804Z,0.74
2023-02-16T00:52:59.773Z,0.74
2023-02-16T00:53:59.760Z,0.76
2023-02-16T00:54:59.746Z,0.78
2023-02-16T00:55:59.731Z,0.83
2023-02-16T00:56:59.736Z,0.84
2023-02-16T00:57:59.702Z,0.88
2023-02-16T00:58:59.700Z,0.94
2023-02-16T00:59:59.680Z,0.98
2023-02-16T01:00:59.666Z,1.04
2023-02-16T01:01:59.690Z,0.94
2023-02-16T01:02:59.697Z,0.83
2023-02-16T01:03:59.646Z,0.76
2023-02-16T01:04:59.632Z,0.68
2023-02-16T01:05:59.600Z,0.63
2023-02-16T01:06:59.609Z,0.66
2023-02-16T01:07:59.593Z,0.69
2023-02-16T01:08:59.570Z,0.73
2023-02-16T01:09:59.544Z,0.69
2023-02-16T01:10:59.534Z,0.65
2023-02-16T01:11:59.527Z,0.65
2023-02-16T01:12:59.522Z,0.60
2023-02-16T01:13:59.494Z,0.65
2023-02-16T01:14:59.482Z,0.69
2023-02-16T01:15:59.607Z,0.74
2023-02-16T01:16:59.459Z,0.59
2023-02-16T01:17:59.453Z,0.40
2023-02-16T01:18:59.431Z,0.37
2023-02-16T01:19:59.414Z,0.40
2023-02-16T01:20:59.405Z,0.37
2023-02-16T01:21:59.392Z,0.36
2023-02-16T01:22:59.410Z,0.36
2023-02-16T01:23:59.367Z,0.37
2023-02-16T01:24:59.352Z,0.39
2023-02-16T01:25:59.346Z,0.26
2023-02-16T01:26:59.327Z,0.23
2023-02-16T01:27:59.326Z,0.26
2023-02-16T01:28:59.305Z,0.21
2023-02-16T01:29:59.352Z,0.12
2023-02-16T01:30:59.328Z,0.19
2023-02-16T01:31:59.465Z,0.22
2023-02-16T01:32:59.268Z,0.22
2023-02-16T01:33:59.233Z,0.23
2023-02-16T01:34:59.224Z,0.21
2023-02-16T01:35:59.248Z,0.26
2023-02-16T01:36:59.201Z,0.23
2023-02-16T01:37:59.202Z,0.22
2023-02-16T01:38:59.195Z,0.28
2023-02-16T01:39:59.161Z,0.28
2023-02-16T01:40:59.148Z,0.28
2023-02-16T01:41:59.136Z,0.34
2023-02-16T01:42:59.151Z,0.37
2023-02-16T01:43:59.102Z,0.37
2023-02-16T01:44:59.096Z,0.22
2023-02-16T01:45:59.083Z,0.22
2023-02-16T01:46:59.064Z,0.15
2023-02-16T01:47:59.059Z,0.16
2023-02-16T01:48:59.061Z,0.23
2023-02-16T01:50:00.782Z,0.08
2023-02-16T01:50:59.021Z,0.08
2023-02-16T01:51:59.019Z,0.08
2023-02-16T01:52:58.989Z,0.11
2023-02-16T01:53:58.991Z,0.19
2023-02-16T01:54:59.064Z,0.21
2023-02-16T01:55:58.955Z,0.22
2023-02-16T01:56:58.944Z,0.26
2023-02-16T01:57:58.925Z,0.36
2023-02-16T01:58:58.932Z,0.32
2023-02-16T01:59:58.898Z,0.23
2023-02-16T02:00:58.895Z,0.22
2023-02-16T02:01:58.979Z,0.23
2023-02-16T02:02:58.882Z,0.19
2023-02-16T02:03:58.864Z,0.15
2023-02-16T02:04:58.836Z,0.12
2023-02-16T02:05:58.826Z,0.10
2023-02-16T02:06:58.814Z,0.19
2023-02-16T02:07:58.805Z,0.26
2023-02-16T02:08:58.800Z,0.34
2023-02-16T02:09:58.773Z,0.41
2023-02-16T02:10:58.781Z,0.44
2023-02-16T02:11:58.749Z,0.47
2023-02-16T02:12:58.803Z,0.50
2023-02-16T02:13:58.742Z,0.56
2023-02-16T02:14:58.705Z,0.59
2023-02-16T02:15:58.726Z,0.59
2023-02-16T02:16:58.691Z,0.62
2023-02-16T02:17:58.664Z,0.65
2023-02-16T02:18:58.675Z,0.65
2023-02-16T02:19:58.645Z,0.62
2023-02-16T02:20:58.628Z,0.63
2023-02-16T02:21:58.618Z,0.60
2023-02-16T02:22:58.606Z,0.52
2023-02-16T02:23:58.615Z,0.43
2023-02-16T02:24:58.593Z,0.37
2023-02-16T02:25:58.560Z,0.36
2023-02-16T02:26:58.573Z,0.44
2023-02-16T02:27:58.541Z,0.47
2023-02-16T02:28:58.565Z,0.50
2023-02-16T02:29:58.542Z,0.46
2023-02-16T02:30:58.591Z,0.40
2023-02-16T02:31:58.605Z,0.36
2023-02-16T02:32:58.474Z,0.39
2023-02-16T02:33:58.483Z,0.39
2023-02-16T02:34:58.449Z,0.39
2023-02-16T02:35:58.442Z,0.37
2023-02-16T02:36:58.425Z,0.36
2023-02-16T02:37:58.417Z,0.36
2023-02-16T02:38:58.414Z,0.40
2023-02-16T02:39:58.383Z,0.39
2023-02-16T02:40:58.370Z,0.40
2023-02-16T02:41:58.359Z,0.44
2023-02-16T02:42:58.369Z,0.40
2023-02-16T02:43:58.353Z,0.40
2023-02-16T02:44:58.324Z,0.44
2023-02-16T02:45:58.303Z,0.49
2023-02-16T02:46:58.302Z,0.59
2023-02-16T02:47:58.280Z,0.59
2023-02-16T02:48:58.293Z,0.60
2023-02-16T02:49:58.253Z,0.58
2023-02-16T02:50:58.245Z,0.49
2023-02-16T02:51:58.230Z,0.46
2023-02-16T02:52:58.219Z,0.43
2023-02-16T02:53:58.241Z,0.40
2023-02-16T02:54:58.192Z,0.36
2023-02-16T02:55:58.180Z,0.32
2023-02-16T02:56:58.171Z,0.31
2023-02-16T02:57:58.159Z,0.28
2023-02-16T02:58:58.164Z,0.26
2023-02-16T02:59:58.150Z,0.25
2023-02-16T03:00:58.151Z,0.22
2023-02-16T03:01:58.147Z,0.23
2023-02-16T03:02:58.096Z,0.29
2023-02-16T03:03:58.092Z,0.34
2023-02-16T03:04:58.088Z,0.34
2023-02-16T03:05:58.060Z,0.36
2023-02-16T03:06:58.045Z,0.37
2023-02-16T03:07:58.032Z,0.44
2023-02-16T03:08:58.017Z,0.43
2023-02-16T03:09:58.020Z,0.43
2023-02-16T03:10:57.990Z,0.49
2023-02-16T03:11:57.974Z,0.47
2023-02-16T03:12:57.964Z,0.49
2023-02-16T03:13:57.958Z,0.43
2023-02-16T03:14:57.983Z,0.43
2023-02-16T03:15:57.965Z,0.41
2023-02-16T03:16:57.914Z,0.46
2023-02-16T03:17:57.903Z,0.46
2023-02-16T03:18:57.890Z,0.47
2023-02-16T03:19:57.888Z,0.43
2023-02-16T03:20:57.861Z,0.44
2023-02-16T03:21:57.856Z,0.43
2023-02-16T03:22:57.839Z,0.43
2023-02-16T03:23:57.822Z,0.43
2023-02-16T03:24:57.820Z,0.43
2023-02-16T03:25:57.796Z,0.36
2023-02-16T03:26:57.789Z,0.32
2023-02-16T03:27:57.781Z,0.32
2023-02-16T03:28:57.764Z,0.36
2023-02-16T03:29:57.803Z,0.36
2023-02-16T03:30:57.769Z,0.34
2023-02-16T03:31:57.820Z,0.34
2023-02-16T03:32:57.706Z,0.41
2023-02-16T03:33:57.691Z,0.44
2023-02-16T03:34:57.688Z,0.40
2023-02-16T03:35:57.665Z,0.34
2023-02-16T03:36:57.648Z,0.23
2023-02-16T03:37:57.635Z,0.21
2023-02-16T03:38:57.626Z,0.19
2023-02-16T03:39:57.630Z,0.25
2023-02-16T03:40:57.599Z,0.26
2023-02-16T03:41:57.586Z,0.25
2023-02-16T03:42:57.573Z,0.28
2023-02-16T03:43:57.562Z,0.32
2023-02-16T03:44:57.561Z,0.32
2023-02-16T03:45:57.593Z,0.29
2023-02-16T03:46:57.544Z,0.26
2023-02-16T03:47:57.508Z,0.31
2023-02-16T03:48:57.495Z,0.31
2023-02-16T03:49:57.496Z,0.29
2023-02-16T03:50:57.473Z,0.23
2023-02-16T03:51:57.455Z,0.19
2023-02-16T03:52:57.442Z,0.18
2023-02-16T03:53:57.427Z,0.12
2023-02-16T03:54:57.434Z,0.19
2023-02-16T03:55:57.403Z,0.18
2023-02-16T03:56:57.424Z,0.16
2023-02-16T03:57:57.376Z,0.12
2023-02-16T03:58:57.368Z,0.15
2023-02-16T03:59:59.275Z,0.21
2023-02-16T04:00:57.338Z,0.18
2023-02-16T04:01:57.332Z,0.15
2023-02-16T04:02:57.345Z,0.11
2023-02-16T04:03:57.417Z,0.15
2023-02-16T04:04:57.296Z,0.11
2023-02-16T04:05:57.292Z,0.12
2023-02-16T04:06:57.262Z,0.12
2023-02-16T04:07:57.249Z,0.10
2023-02-16T04:08:57.240Z,0.10
2023-02-16T04:09:57.229Z,0.08
2023-02-16T04:10:57.228Z,0.08
2023-02-16T04:11:57.205Z,0.11
2023-02-16T04:12:57.187Z,0.16
2023-02-16T04:13:57.175Z,0.07
2023-02-16T04:14:57.162Z,0.05
2023-02-16T04:15:57.161Z,0.04
2023-02-16T04:16:57.137Z,0.05
2023-02-16T04:17:57.137Z,0.01
2023-02-16T04:18:57.136Z,0.01
2023-02-16T04:19:57.105Z,0.00
2023-02-16T04:20:57.107Z,0.00
2023-02-16T04:21:57.072Z,-0.02
2023-02-16T04:22:57.068Z,0.00
2023-02-16T04:23:57.050Z,0.00
2023-02-16T04:24:57.036Z,0.00
2023-02-16T04:25:57.043Z,0.05
2023-02-16T04:26:57.016Z,0.03
2023-02-16T04:27:57.002Z,0.05
2023-02-16T04:28:56.989Z,0.11
2023-02-16T04:29:57.010Z,0.12
2023-02-16T04:30:57.135Z,0.08
2023-02-16T04:31:57.095Z,0.08
2023-02-16T04:32:56.935Z,0.04
2023-02-16T04:33:56.923Z,0.05
2023-02-16T04:34:56.929Z,0.08
2023-02-16T04:35:56.928Z,0.07
2023-02-16T04:36:56.887Z,0.08
2023-02-16T04:37:56.871Z,0.08
2023-02-16T04:38:56.858Z,0.11
2023-02-16T04:39:56.842Z,0.16
2023-02-16T04:40:56.860Z,0.10
2023-02-16T04:41:56.816Z,0.05
2023-02-16T04:42:56.805Z,0.11
2023-02-16T04:43:56.790Z,0.11
2023-02-16T04:44:56.787Z,0.15
2023-02-16T04:45:56.849Z,0.07
2023-02-16T04:46:56.763Z,-0.02
2023-02-16T04:47:56.753Z,-0.03
2023-02-16T04:48:56.738Z,-0.02
2023-02-16T04:49:56.719Z,-0.03
2023-02-16T04:50:56.738Z,-0.06
2023-02-16T04:51:56.704Z,-0.03
2023-02-16T04:52:56.682Z,0.03
2023-02-16T04:53:56.682Z,0.10
2023-02-16T04:54:56.660Z,0.12
2023-02-16T04:55:56.658Z,0.16
2023-02-16T04:56:56.631Z,0.16
2023-02-16T04:57:56.631Z,0.18
2023-02-16T04:58:56.611Z,0.21
2023-02-16T04:59:56.596Z,0.22
2023-02-16T05:00:56.606Z,0.23
2023-02-16T05:01:56.659Z,0.23
2023-02-16T05:02:56.565Z,0.26
2023-02-16T05:03:56.541Z,0.28
2023-02-16T05:04:56.530Z,0.26
2023-02-16T05:05:56.546Z,0.31
2023-02-16T05:06:56.523Z,0.32
2023-02-16T05:07:56.496Z,0.37
2023-02-16T05:08:56.482Z,0.37
2023-02-16T05:09:56.465Z,0.36
2023-02-16T05:10:56.471Z,0.41
2023-02-16T05:11:56.445Z,0.37
2023-02-16T05:12:56.434Z,0.44
2023-02-16T05:13:56.453Z,0.49
2023-02-16T05:14:56.411Z,0.46
2023-02-16T05:15:56.485Z,0.46
2023-02-16T05:16:56.378Z,0.47
2023-02-16T05:17:56.367Z,0.46
2023-02-16T05:18:58.708Z,0.43
2023-02-16T05:19:56.345Z,0.41
2023-02-16T05:20:56.385Z,0.43
2023-02-16T05:21:56.318Z,0.43
2023-02-16T05:22:56.335Z,0.46
2023-02-16T05:23:56.295Z,0.46
2023-02-16T05:24:56.279Z,0.41
2023-02-16T05:25:56.282Z,0.37
2023-02-16T05:26:56.248Z,0.41
2023-02-16T05:27:56.252Z,0.37
2023-02-16T05:28:56.226Z,0.39
2023-02-16T05:29:56.288Z,0.41
2023-02-16T05:30:56.268Z,0.47
2023-02-16T05:31:56.245Z,0.50
2023-02-16T05:32:56.214Z,0.59
2023-02-16T05:33:56.236Z,0.60
2023-02-16T05:34:56.164Z,0.69
2023-02-16T05:35:56.164Z,0.70
2023-02-16T05:36:56.139Z,0.63
2023-02-16T05:37:56.120Z,0.56
2023-02-16T05:38:56.117Z,0.41
2023-02-16T05:39:56.098Z,0.40
2023-02-16T05:40:56.096Z,0.32
2023-02-16T05:41:56.073Z,0.26
2023-02-16T05:42:56.051Z,0.23
2023-02-16T05:43:56.064Z,0.26
2023-02-16T05:44:56.020Z,0.28
2023-02-16T05:45:56.098Z,0.22
2023-02-16T05:46:56.010Z,0.26
2023-02-16T05:47:56.002Z,0.19
2023-02-16T05:48:56.006Z,0.19
2023-02-16T05:49:55.960Z,0.19
2023-02-16T05:50:55.947Z,0.23
2023-02-16T05:51:55.955Z,0.29
2023-02-16T05:52:55.917Z,0.26
2023-02-16T05:53:55.914Z,0.29
2023-02-16T05:54:55.917Z,0.28
2023-02-16T05:55:55.881Z,0.26
2023-02-16T05:56:55.886Z,0.26
2023-02-16T05:57:55.864Z,0.26
2023-02-16T05:58:55.852Z,0.23
2023-02-16T05:59:55.840Z,0.22
2023-02-16T06:00:55.816Z,0.16
2023-02-16T06:01:55.818Z,0.10
2023-02-16T06:02:55.892Z,0.11
2023-02-16T06:03:55.850Z,0.10
2023-02-16T06:04:55.776Z,0.10
2023-02-16T06:05:55.752Z,0.05
2023-02-16T06:06:55.796Z,0.03
2023-02-16T06:07:55.736Z,-0.03
2023-02-16T06:08:55.708Z,-0.03
2023-02-16T06:09:55.697Z,0.00
2023-02-16T06:10:55.818Z,-0.03
2023-02-16T06:11:55.699Z,-0.02
2023-02-16T06:12:55.662Z,-0.06
2023-02-16T06:13:55.648Z,0.01
2023-02-16T06:14:55.639Z,0.03
2023-02-16T06:15:55.678Z,0.07
2023-02-16T06:16:55.624Z,0.10
2023-02-16T06:17:55.597Z,0.12
2023-02-16T06:18:55.587Z,0.19
2023-02-16T06:19:55.572Z,0.19
2023-02-16T06:20:55.558Z,0.11
2023-02-16T06:21:55.569Z,0.07
2023-02-16T06:22:55.530Z,0.08
2023-02-16T06:23:55.543Z,0.12
2023-02-16T06:24:55.520Z,0.18
2023-02-16T06:25:55.496Z,0.18
2023-02-16T06:26:55.528Z,0.21
2023-02-16T06:27:55.477Z,0.16
2023-02-16T06:28:55.457Z,0.10
2023-02-16T06:29:55.499Z,0.15
2023-02-16T06:30:55.489Z,0.10
2023-02-16T06:31:55.661Z,0.07
2023-02-16T06:32:55.437Z,0.03
2023-02-16T06:33:55.401Z,0.01
2023-02-16T06:34:55.384Z,0.05
2023-02-16T06:35:55.372Z,0.00
2023-02-16T06:36:55.438Z,-0.03
2023-02-16T06:37:55.344Z,-0.03
2023-02-16T06:38:55.337Z,0.03
2023-02-16T06:39:55.330Z,0.05
2023-02-16T06:40:55.306Z,0.10
2023-02-16T06:41:55.307Z,0.10
2023-02-16T06:42:55.307Z,0.11
2023-02-16T06:43:55.278Z,0.12
2023-02-16T06:44:55.256Z,0.12
2023-02-16T06:45:55.246Z,0.08
2023-02-16T06:46:55.334Z,0.03
2023-02-16T06:47:55.217Z,0.00
2023-02-16T06:48:55.208Z,-0.02
2023-02-16T06:49:55.201Z,-0.02
2023-02-16T06:50:55.186Z,-0.02
2023-02-16T06:51:55.199Z,0.03
2023-02-16T06:52:55.158Z,-0.02
2023-02-16T06:53:55.158Z,-0.06
2023-02-16T06:54:55.130Z,-0.13
2023-02-16T06:55:55.121Z,-0.15
2023-02-16T06:56:55.123Z,-0.10
2023-02-16T06:57:55.097Z,-0.07
2023-02-16T06:58:55.214Z,-0.02
2023-02-16T06:59:55.070Z,0.00
2023-02-16T07:00:55.143Z,0.05
2023-02-16T07:01:55.084Z,0.10
2023-02-16T07:02:55.061Z,0.07
2023-02-16T07:03:55.021Z,0.15
2023-02-16T07:04:55.006Z,0.07
2023-02-16T07:05:54.997Z,0.10
2023-02-16T07:06:54.994Z,0.12
2023-02-16T07:07:54.969Z,0.23
2023-02-16T07:08:54.958Z,0.26
2023-02-16T07:09:54.947Z,0.36
2023-02-16T07:10:54.937Z,0.46
2023-02-16T07:11:54.951Z,0.52
2023-02-16T07:12:54.905Z,0.56
2023-02-16T07:13:54.903Z,0.49
2023-02-16T07:14:54.921Z,0.43
2023-02-16T07:15:54.895Z,0.46
2023-02-16T07:16:54.855Z,0.49
2023-02-16T07:17:54.858Z,0.37
2023-02-16T07:18:54.825Z,0.28
2023-02-16T07:19:54.814Z,0.29
2023-02-16T07:20:54.798Z,0.28
2023-02-16T07:21:54.789Z,0.23
2023-02-16T07:22:54.790Z,0.21
2023-02-16T07:23:54.771Z,0.25
2023-02-16T07:24:54.751Z,0.31
2023-02-16T07:25:54.746Z,0.36
2023-02-16T07:26:54.730Z,0.34
2023-02-16T07:27:54.734Z,0.22
2023-02-16T07:28:54.723Z,0.18
2023-02-16T07:29:54.784Z,0.21
2023-02-16T07:30:54.818Z,0.28
2023-02-16T07:31:54.806Z,0.25
2023-02-16T07:32:54.660Z,0.23
2023-02-16T07:33:54.631Z,0.26
2023-02-16T07:34:54.622Z,0.26
2023-02-16T07:35:54.609Z,0.22
2023-02-16T07:36:54.600Z,0.25
2023-02-16T07:37:54.608Z,0.36
2023-02-16T07:38:54.571Z,0.34
2023-02-16T07:39:54.554Z,0.29
2023-02-16T07:40:54.543Z,0.19
2023-02-16T07:41:54.529Z,0.28
2023-02-16T07:42:54.523Z,0.22
2023-02-16T07:43:54.524Z,0.29
2023-02-16T07:44:54.492Z,0.37
2023-02-16T07:45:54.631Z,0.37
2023-02-16T07:46:54.577Z,0.40
2023-02-16T07:47:54.456Z,0.28
2023-02-16T07:48:54.473Z,0.23
2023-02-16T07:49:54.426Z,0.19
2023-02-16T07:50:54.414Z,0.22
2023-02-16T07:51:54.399Z,0.26
2023-02-16T07:52:54.384Z,0.21
2023-02-16T07:53:54.390Z,0.21
2023-02-16T07:54:54.361Z,0.22
2023-02-16T07:55:54.376Z,0.19
2023-02-16T07:56:54.343Z,0.37
2023-02-16T07:57:54.333Z,0.46
2023-02-16T07:58:54.331Z,0.50
2023-02-16T07:59:54.304Z,0.62
2023-02-16T08:00:54.278Z,0.59
2023-02-16T08:01:54.451Z,0.36
2023-02-16T08:02:54.492Z,0.36
2023-02-16T08:03:54.257Z,0.46
2023-02-16T08:04:54.249Z,0.49
2023-02-16T08:05:54.215Z,0.47
2023-02-16T08:06:54.202Z,0.60
2023-02-16T08:07:54.193Z,0.65
2023-02-16T08:08:54.189Z,0.70
2023-02-16T08:09:54.168Z,0.74
2023-02-16T08:10:54.146Z,0.70
2023-02-16T08:11:54.140Z,0.77
2023-02-16T08:12:54.122Z,0.98
2023-02-16T08:13:54.147Z,1.02
2023-02-16T08:14:54.102Z,1.04
2023-02-16T08:15:54.089Z,0.87
2023-02-16T08:16:56.336Z,0.94
2023-02-16T08:17:54.065Z,0.88
2023-02-16T08:18:54.091Z,0.88
2023-02-16T08:19:54.039Z,0.87
2023-02-16T08:21:03.890Z,0.77
2023-02-16T08:21:54.015Z,0.81
2023-02-16T08:22:54.000Z,0.69
2023-02-16T08:23:54.004Z,0.60
2023-02-16T08:24:53.980Z,0.59
2023-02-16T08:25:53.964Z,0.58
2023-02-16T08:26:54.024Z,0.62
2023-02-16T08:27:53.939Z,0.65
2023-02-16T08:28:53.943Z,0.56
2023-02-16T08:29:53.958Z,0.69
2023-02-16T08:30:53.994Z,0.80
2023-02-16T08:31:53.954Z,0.81
2023-02-16T08:32:53.872Z,0.68
2023-02-16T08:33:53.880Z,0.60
2023-02-16T08:34:53.868Z,0.74
2023-02-16T08:35:53.840Z,0.76
2023-02-16T08:36:53.820Z,0.70
2023-02-16T08:37:53.807Z,0.69
2023-02-16T08:38:53.809Z,0.78
2023-02-16T08:39:53.797Z,0.83
2023-02-16T08:40:53.770Z,0.99
2023-02-16T08:41:53.760Z,1.04
2023-02-16T08:42:53.744Z,0.98
2023-02-16T08:43:53.750Z,0.92
2023-02-16T08:44:53.780Z,0.84
2023-02-16T08:45:53.764Z,0.78
2023-02-16T08:46:53.692Z,0.84
2023-02-16T08:47:53.685Z,0.87
2023-02-16T08:48:55.811Z,0.88
2023-02-16T08:49:53.653Z,0.95
2023-02-16T08:50:53.983Z,0.91
2023-02-16T08:51:53.625Z,0.80
2023-02-16T08:52:53.614Z,0.81
2023-02-16T08:53:53.606Z,0.74
2023-02-16T08:54:53.599Z,0.81
2023-02-16T08:55:53.573Z,0.78
2023-02-16T08:56:53.562Z,0.84
2023-02-16T08:57:53.548Z,0.87
2023-02-16T08:58:53.534Z,0.87
2023-02-16T08:59:53.538Z,0.87
2023-02-16T09:00:53.527Z,0.88
2023-02-16T09:01:53.494Z,0.99
2023-02-16T09:02:53.491Z,1.05
2023-02-16T09:03:53.482Z,1.05
2023-02-16T09:04:53.478Z,1.05
2023-02-16T09:05:53.445Z,1.13
2023-02-16T09:06:53.450Z,1.19
2023-02-16T09:07:53.421Z,1.14
2023-02-16T09:08:53.403Z,1.13
2023-02-16T09:09:53.412Z,1.19
2023-02-16T09:10:53.378Z,1.28
2023-02-16T09:11:53.369Z,1.34
2023-02-16T09:12:53.357Z,1.38
2023-02-16T09:13:53.350Z,1.41
2023-02-16T09:14:53.341Z,1.45
2023-02-16T09:15:53.320Z,1.42
2023-02-16T09:16:53.324Z,1.42
2023-02-16T09:17:53.290Z,1.50
2023-02-16T09:18:53.275Z,1.59
2023-02-16T09:19:53.279Z,1.55
2023-02-16T09:20:53.253Z,1.59
2023-02-16T09:21:53.247Z,1.55
2023-02-16T09:22:53.251Z,1.42
2023-02-16T09:23:53.219Z,1.41
2023-02-16T09:24:53.217Z,1.40
2023-02-16T09:25:53.186Z,1.44
2023-02-16T09:26:53.181Z,1.48
2023-02-16T09:27:53.175Z,1.58
2023-02-16T09:28:53.149Z,1.63
2023-02-16T09:29:53.198Z,1.74
2023-02-16T09:30:53.178Z,1.89
2023-02-16T09:31:53.136Z,2.06
2023-02-16T09:32:53.096Z,2.24
2023-02-16T09:33:53.082Z,2.32
2023-02-16T09:34:53.086Z,2.44
2023-02-16T09:35:53.053Z,2.56
2023-02-16T09:36:53.054Z,2.71
2023-02-16T09:37:53.035Z,2.79
2023-02-16T09:38:53.041Z,2.86
2023-02-16T09:39:53.032Z,2.89
2023-02-16T09:40:52.993Z,2.64
2023-02-16T09:41:52.982Z,2.71
2023-02-16T09:42:52.971Z,2.50
2023-02-16T09:43:52.953Z,2.29
2023-02-16T09:44:52.957Z,2.11
2023-02-16T09:45:52.967Z,2.29
2023-02-16T09:46:52.922Z,2.44
2023-02-16T09:47:52.916Z,2.56
2023-02-16T09:48:52.893Z,2.75
2023-02-16T09:49:52.898Z,2.54
2023-02-16T09:50:54.586Z,2.47
2023-02-16T09:51:52.850Z,2.54
2023-02-16T09:52:52.849Z,2.56
2023-02-16T09:53:52.834Z,2.50
2023-02-16T09:54:52.854Z,2.38
2023-02-16T09:55:52.802Z,2.39
2023-02-16T09:56:52.787Z,2.51
2023-02-16T09:57:52.780Z,2.65
2023-02-16T09:58:52.761Z,2.80
2023-02-16T09:59:52.760Z,2.77
2023-02-16T10:00:52.732Z,2.62
2023-02-16T10:01:52.718Z,2.62
2023-02-16T10:02:52.710Z,2.72
2023-02-16T10:03:52.709Z,2.85
2023-02-16T10:04:52.695Z,2.89
2023-02-16T10:05:52.666Z,3.00
2023-02-16T10:06:52.658Z,3.22
2023-02-16T10:07:52.674Z,3.42
2023-02-16T10:08:52.687Z,3.60
2023-02-16T10:09:52.612Z,3.47
2023-02-16T10:10:52.661Z,3.51
2023-02-16T10:11:52.590Z,3.44
2023-02-16T10:12:52.583Z,3.45
2023-02-16T10:13:52.575Z,3.60
2023-02-16T10:14:52.551Z,3.70
2023-02-16T10:15:54.094Z,3.60
2023-02-16T10:16:52.527Z,3.40
2023-02-16T10:17:52.522Z,3.42
2023-02-16T10:18:52.502Z,3.40
2023-02-16T10:19:52.485Z,3.34
2023-02-16T10:20:52.493Z,3.13
2023-02-16T10:21:52.479Z,3.01
2023-02-16T10:22:52.449Z,3.03
2023-02-16T10:23:52.444Z,3.14
2023-02-16T10:24:52.424Z,3.23
2023-02-16T10:25:52.422Z,3.28
2023-02-16T10:26:52.423Z,2.93
2023-02-16T10:27:52.390Z,2.82
2023-02-16T10:28:52.378Z,2.77
2023-02-16T10:29:52.484Z,2.57
2023-02-16T10:30:52.486Z,2.68
2023-02-16T10:31:52.397Z,2.83
2023-02-16T10:32:52.324Z,3.03
2023-02-16T10:33:52.337Z,3.05
2023-02-16T10:34:52.302Z,3.23
2023-02-16T10:35:52.310Z,3.41
2023-02-16T10:36:52.271Z,3.60
2023-02-16T10:37:52.262Z,3.63
2023-02-16T10:38:52.253Z,3.77
2023-02-16T10:39:52.235Z,3.55
2023-02-16T10:40:52.237Z,3.47
2023-02-16T10:41:52.208Z,3.60
2023-02-16T10:42:52.263Z,3.69
2023-02-16T10:43:52.193Z,3.87
2023-02-16T10:44:52.190Z,4.24
2023-02-16T10:45:52.775Z,4.49
2023-02-16T10:46:52.149Z,4.82
2023-02-16T10:47:52.131Z,4.97
2023-02-16T10:48:52.130Z,4.89
2023-02-16T10:49:52.109Z,4.80
2023-02-16T10:50:52.108Z,4.70
2023-02-16T10:51:52.077Z,4.68
2023-02-16T10:52:52.071Z,4.71
2023-02-16T10:53:52.060Z,4.89
2023-02-16T10:54:52.045Z,5.02
2023-02-16T10:55:52.042Z,5.12
2023-02-16T10:56:52.011Z,4.77
2023-02-16T10:57:51.999Z,4.55
2023-02-16T10:58:52.008Z,4.66
2023-02-16T10:59:51.984Z,4.60
2023-02-16T11:00:51.972Z,4.60
2023-02-16T11:01:51.974Z,4.75
2023-02-16T11:02:51.934Z,4.75
2023-02-16T11:03:51.940Z,4.73
2023-02-16T11:04:51.920Z,4.67
2023-02-16T11:05:51.913Z,5.20
2023-02-16T11:06:51.879Z,6.26
2023-02-16T11:07:51.885Z,7.36
2023-02-16T11:08:51.866Z,8.60
2023-02-16T11:09:51.846Z,9.43
2023-02-16T11:10:51.848Z,9.65
2023-02-16T11:11:51.829Z,9.91
2023-02-16T11:12:51.806Z,10.19
2023-02-16T11:13:51.790Z,9.83
2023-02-16T11:14:51.808Z,9.84
2023-02-16T11:15:51.785Z,9.40
2023-02-16T11:16:51.764Z,8.67
2023-02-16T11:17:51.735Z,8.71
2023-02-16T11:18:51.728Z,8.61
2023-02-16T11:19:51.717Z,8.53
2023-02-16T11:20:51.704Z,7.94
2023-02-16T11:21:51.711Z,7.28
2023-02-16T11:22:51.683Z,6.66
2023-02-16T11:23:51.662Z,7.13
2023-02-16T11:24:51.649Z,8.05
2023-02-16T11:25:51.632Z,8.12
2023-02-16T11:26:51.632Z,8.18
2023-02-16T11:27:51.608Z,8.36
2023-02-16T11:28:51.600Z,9.11
2023-02-16T11:29:51.582Z,10.09
2023-02-16T11:30:51.682Z,10.90
2023-02-16T11:31:51.723Z,11.65
2023-02-16T11:32:51.548Z,12.12
2023-02-16T11:33:51.535Z,12.65
2023-02-16T11:34:51.519Z,12.90
2023-02-16T11:35:51.503Z,12.93
2023-02-16T11:36:51.502Z,12.86
2023-02-16T11:37:51.471Z,12.54
2023-02-16T11:38:51.464Z,12.78
2023-02-16T11:39:51.454Z,12.85
2023-02-16T11:40:51.434Z,11.86
2023-02-16T11:41:51.440Z,11.90
2023-02-16T11:42:51.411Z,10.93
2023-02-16T11:43:51.395Z,9.94
2023-02-16T11:44:51.390Z,9.87
2023-02-16T11:45:51.642Z,9.79
2023-02-16T11:46:51.421Z,9.69
2023-02-16T11:47:51.334Z,9.41
2023-02-16T11:48:51.324Z,9.23
2023-02-16T11:49:51.551Z,9.02
2023-02-16T11:50:52.249Z,8.94
2023-02-16T11:51:51.299Z,8.69
2023-02-16T11:52:51.269Z,8.49
2023-02-16T11:53:51.249Z,8.26
2023-02-16T11:54:51.240Z,8.09
2023-02-16T11:55:51.234Z,8.00
2023-02-16T11:56:51.289Z,7.88
2023-02-16T11:57:51.210Z,7.57
2023-02-16T11:58:51.188Z,7.35
2023-02-16T11:59:51.169Z,7.24
2023-02-16T12:00:51.157Z,7.21
2023-02-16T12:01:51.169Z,7.25
2023-02-16T12:02:51.149Z,7.25
2023-02-16T12:03:51.178Z,7.15
2023-02-16T12:04:51.284Z,7.07
2023-02-16T12:05:51.091Z,7.18
2023-02-16T12:06:51.097Z,7.40
2023-02-16T12:07:51.073Z,7.80
2023-02-16T12:08:51.052Z,8.27
2023-02-16T12:09:51.045Z,8.63
2023-02-16T12:10:51.032Z,8.84
2023-02-16T12:11:51.029Z,8.92
2023-02-16T12:12:50.998Z,9.06
2023-02-16T12:13:50.994Z,9.18
2023-02-16T12:14:50.983Z,9.29
2023-02-16T12:15:51.098Z,9.32
2023-02-16T12:16:50.967Z,9.39
2023-02-16T12:17:50.930Z,9.46
2023-02-16T12:18:50.945Z,9.51
2023-02-16T12:19:50.906Z,9.79
2023-02-16T12:20:50.894Z,9.74
2023-02-16T12:21:50.895Z,9.64
2023-02-16T12:22:50.865Z,9.61
2023-02-16T12:23:50.853Z,9.55
2023-02-16T12:24:50.843Z,9.39
2023-02-16T12:25:50.824Z,9.11
2023-02-16T12:26:50.842Z,8.74
2023-02-16T12:27:50.798Z,8.63
2023-02-16T12:28:50.811Z,8.52
2023-02-16T12:29:50.780Z,8.44
2023-02-16T12:30:50.808Z,8.41
2023-02-16T12:31:50.779Z,8.34
2023-02-16T12:32:50.752Z,8.42
2023-02-16T12:33:50.722Z,8.58
2023-02-16T12:34:50.726Z,8.74
2023-02-16T12:35:50.696Z,8.81
2023-02-16T12:36:50.680Z,9.11
2023-02-16T12:37:50.682Z,9.32
2023-02-16T12:38:50.661Z,9.04
2023-02-16T12:39:50.638Z,9.54
2023-02-16T12:40:50.661Z,9.76
2023-02-16T12:41:50.613Z,10.64
2023-02-16T12:42:50.612Z,11.27
2023-02-16T12:43:50.580Z,11.57
2023-02-16T12:44:50.610Z,12.54
2023-02-16T12:45:50.587Z,12.83
2023-02-16T12:46:50.540Z,12.09
2023-02-16T12:47:50.546Z,11.78
2023-02-16T12:48:50.521Z,11.62
2023-02-16T12:49:50.500Z,11.63
2023-02-16T12:50:50.506Z,11.87
2023-02-16T12:51:50.479Z,12.06
2023-02-16T12:52:50.487Z,12.04
2023-02-16T12:53:50.444Z,11.84
2023-02-16T12:54:50.431Z,11.37
2023-02-16T12:55:50.423Z,11.12
2023-02-16T12:56:50.409Z,11.02
2023-02-16T12:57:50.407Z,11.36
2023-02-16T12:58:50.379Z,11.77
2023-02-16T12:59:50.367Z,12.04
2023-02-16T13:00:50.419Z,12.24
2023-02-16T13:01:50.339Z,11.99
2023-02-16T13:02:50.356Z,11.78
2023-02-16T13:03:50.427Z,11.72
2023-02-16T13:04:50.306Z,11.35
2023-02-16T13:05:50.295Z,11.26
2023-02-16T13:06:50.303Z,11.12
2023-02-16T13:07:50.286Z,11.15
2023-02-16T13:08:50.257Z,10.79
2023-02-16T13:09:50.240Z,10.37
2023-02-16T13:10:50.228Z,10.46
2023-02-16T13:11:50.242Z,10.42
2023-02-16T13:12:50.220Z,10.56
2023-02-16T13:13:50.194Z,10.35
2023-02-16T13:14:50.176Z,9.99
2023-02-16T13:15:50.180Z,9.80